PWSweather.com
Personal Weather Stations
Station Observations

Acton, CA 93510

Lat: 34.47703, Lon: -118.17483

Elevation: 2900

Station Type: Davis Vantage Pro 2

http://www.actonastro.com/weather/current.php

Latest ConditionsUpdated 5:28:14 PM PDT Saturday, Apr 30, 2016
Currently Today's Max Today's Min Today's Average
Temperature 64.0°F17.8°C 64.0°F17.8°C 63.1°F17.3°C 63.6°F17.6°C
Dew Point 33.5°F0.8°C 35.5°F1.9°C 33.5°F0.8°C 34.2°F1.2°C
Winds 8.0 mph NE12.9 kmh NE 11.0 mph NE17.7 kmh NE - 7.8 mph 12.6 kmh
Wind Gusts 15.0 mph24.1 kmh 19.0 mph30.6 kmh - -
Humidity 32% 35% 32% 33%
Pressure 29.62 in1003.0 mb 29.63 in1003.4 mb 29.62 in1003.0 mb -
Hour Temp Dew Point Humidity Winds Wind Gusts Pressure Precip Precip Rate Daily Precip Total
05:28 PM 64.0°F17.8°C 33.5°F0.8°C 32% 8.0 mph NE12.9 kmh NE 15.0 mph24.1 kmh 29.62 in1003.0 mb 0.00 in0.0 mm 0.00 in0.0 mm 0.00 in0.0 mm
05:23 PM 63.9°F17.7°C 33.5°F0.8°C 32% 9.0 mph N14.5 kmh N 19.0 mph30.6 kmh 29.62 in1003.0 mb 0.00 in0.0 mm 0.00 in0.0 mm 0.00 in0.0 mm
05:18 PM 63.2°F17.3°C 33.6°F0.9°C 33% 6.0 mph N9.7 kmh N 19.0 mph30.6 kmh 29.62 in1003.0 mb 0.00 in0.0 mm 0.00 in0.0 mm 0.00 in0.0 mm
05:13 PM 63.1°F17.3°C 35.0°F1.7°C 35% 5.0 mph N8.0 kmh N 19.0 mph30.6 kmh 29.63 in1003.4 mb 0.00 in0.0 mm 0.00 in0.0 mm 0.00 in0.0 mm
05:08 PM 63.7°F17.6°C 35.5°F1.9°C 35% 11.0 mph NE17.7 kmh NE 19.0 mph30.6 kmh 29.63 in1003.4 mb 0.00 in0.0 mm 0.00 in0.0 mm 0.00 in0.0 mm
05:03 PM 63.9°F17.7°C 34.2°F1.2°C 33% 8.0 mph NE12.9 kmh NE 17.0 mph27.4 kmh 29.63 in1003.4 mb 0.00 in0.0 mm 0.00 in0.0 mm 0.00 in0.0 mm
04:58 PM 63.4°F17.4°C 33.8°F1.0°C 33% 4.0 mph 6.4 kmh 17.0 mph27.4 kmh 29.62 in1003.0 mb 0.00 in0.0 mm 0.00 in0.0 mm 0.00 in0.0 mm
04:53 PM 63.5°F17.5°C 35.4°F1.9°C 35% 14.0 mph NE22.5 kmh NE 17.0 mph27.4 kmh 29.62 in1003.0 mb 0.00 in0.0 mm 0.00 in0.0 mm 0.00 in0.0 mm
04:48 PM 63.7°F17.6°C 34.1°F1.2°C 33% 8.0 mph ENE12.9 kmh ENE 11.0 mph17.7 kmh 29.62 in1003.0 mb 0.00 in0.0 mm 0.00 in0.0 mm 0.00 in0.0 mm
04:43 PM 63.1°F17.3°C 35.7°F2.1°C 36% 4.0 mph E6.4 kmh E 17.0 mph27.4 kmh 29.61 in1002.7 mb 0.00 in0.0 mm 0.00 in0.0 mm 0.00 in0.0 mm
04:38 PM 62.9°F17.2°C 36.9°F2.7°C 38% 4.0 mph E6.4 kmh E 17.0 mph27.4 kmh 29.61 in1002.7 mb 0.00 in0.0 mm 0.00 in0.0 mm 0.00 in0.0 mm
04:33 PM 62.7°F17.1°C 38.0°F3.3°C 40% 6.0 mph E9.7 kmh E 17.0 mph27.4 kmh 29.61 in1002.7 mb 0.00 in0.0 mm 0.00 in0.0 mm 0.00 in0.0 mm
04:28 PM 63.9°F17.7°C 37.8°F3.2°C 38% 11.0 mph NE17.7 kmh NE 17.0 mph27.4 kmh 29.59 in1002.0 mb 0.00 in0.0 mm 0.00 in0.0 mm 0.00 in0.0 mm
04:23 PM 65.0°F18.3°C 35.2°F1.8°C 33% 6.0 mph SE9.7 kmh SE 15.0 mph24.1 kmh 29.59 in1002.0 mb 0.00 in0.0 mm 0.00 in0.0 mm 0.00 in0.0 mm
04:18 PM 65.6°F18.7°C 31.6°F-0.2°C 28% 4.0 mph E6.4 kmh E 15.0 mph24.1 kmh 29.59 in1002.0 mb 0.00 in0.0 mm 0.00 in0.0 mm 0.00 in0.0 mm
04:13 PM 65.8°F18.8°C 30.9°F-0.6°C 27% 6.0 mph E9.7 kmh E 14.0 mph22.5 kmh 29.59 in1002.0 mb 0.00 in0.0 mm 0.00 in0.0 mm 0.00 in0.0 mm
04:08 PM 66.0°F18.9°C 31.1°F-0.5°C 27% 5.0 mph ENE8.0 kmh ENE 15.0 mph24.1 kmh 29.59 in1002.0 mb 0.00 in0.0 mm 0.00 in0.0 mm 0.00 in0.0 mm
04:03 PM 66.1°F18.9°C 29.3°F-1.5°C 25% 4.0 mph NE6.4 kmh NE 15.0 mph24.1 kmh 29.59 in1002.0 mb 0.00 in0.0 mm 0.00 in0.0 mm 0.00 in0.0 mm
03:58 PM 66.0°F18.9°C 29.2°F-1.6°C 25% 3.0 mph NE4.8 kmh NE 15.0 mph24.1 kmh 29.59 in1002.0 mb 0.00 in0.0 mm 0.00 in0.0 mm 0.00 in0.0 mm
03:53 PM 66.3°F19.1°C 29.4°F-1.4°C 25% 10.0 mph NE16.1 kmh NE 15.0 mph24.1 kmh 29.59 in1002.0 mb 0.00 in0.0 mm 0.00 in0.0 mm 0.00 in0.0 mm
03:48 PM 66.4°F19.1°C 28.5°F-1.9°C 24% 6.0 mph NNE9.7 kmh NNE 13.0 mph20.9 kmh 29.59 in1002.0 mb 0.00 in0.0 mm 0.00 in0.0 mm 0.00 in0.0 mm
03:43 PM 66.4°F19.1°C 28.5°F-1.9°C 24% 7.0 mph NE11.3 kmh NE 13.0 mph20.9 kmh 29.58 in1001.7 mb 0.00 in0.0 mm 0.00 in0.0 mm 0.00 in0.0 mm
03:38 PM 66.6°F19.2°C 29.7°F-1.3°C 25% 5.0 mph NE8.0 kmh NE 16.0 mph25.7 kmh 29.58 in1001.7 mb 0.00 in0.0 mm 0.00 in0.0 mm 0.00 in0.0 mm
03:33 PM 66.9°F19.4°C 28.9°F-1.7°C 24% 3.0 mph N4.8 kmh N 16.0 mph25.7 kmh 29.58 in1001.7 mb 0.00 in0.0 mm 0.00 in0.0 mm 0.00 in0.0 mm
03:28 PM 67.1°F19.5°C 29.1°F-1.6°C 24% 10.0 mph NE16.1 kmh NE 18.0 mph29.0 kmh 29.59 in1002.0 mb 0.00 in0.0 mm 0.00 in0.0 mm 0.00 in0.0 mm
03:23 PM 66.4°F19.1°C 29.5°F-1.4°C 25% 5.0 mph NE8.0 kmh NE 18.0 mph29.0 kmh 29.59 in1002.0 mb 0.00 in0.0 mm 0.00 in0.0 mm 0.00 in0.0 mm
03:18 PM 66.8°F19.3°C 28.8°F-1.8°C 24% 6.0 mph N9.7 kmh N 18.0 mph29.0 kmh 29.59 in1002.0 mb 0.00 in0.0 mm 0.00 in0.0 mm 0.00 in0.0 mm
03:13 PM 66.9°F19.4°C 31.8°F-0.1°C 27% 13.0 mph NNE20.9 kmh NNE 18.0 mph29.0 kmh 29.60 in1002.4 mb 0.00 in0.0 mm 0.00 in0.0 mm 0.00 in0.0 mm
03:08 PM 66.6°F19.2°C 28.7°F-1.8°C 24% 6.0 mph N9.7 kmh N 16.0 mph25.7 kmh 29.60 in1002.4 mb 0.00 in0.0 mm 0.00 in0.0 mm 0.00 in0.0 mm
03:03 PM 66.3°F19.1°C 31.3°F-0.4°C 27% 11.0 mph ENE17.7 kmh ENE 11.0 mph17.7 kmh 29.60 in1002.4 mb 0.00 in0.0 mm 0.00 in0.0 mm 0.00 in0.0 mm
02:58 PM 66.0°F18.9°C 31.1°F-0.5°C 27% 6.0 mph NW9.7 kmh NW 14.0 mph22.5 kmh 29.61 in1002.7 mb 0.00 in0.0 mm 0.00 in0.0 mm 0.00 in0.0 mm
02:53 PM 66.0°F18.9°C 32.0°F0.0°C 28% 2.0 mph W3.2 kmh W 14.0 mph22.5 kmh 29.61 in1002.7 mb 0.00 in0.0 mm 0.00 in0.0 mm 0.00 in0.0 mm
02:48 PM 66.4°F19.1°C 29.5°F-1.4°C 25% 4.0 mph NE6.4 kmh NE 14.0 mph22.5 kmh 29.61 in1002.7 mb 0.00 in0.0 mm 0.00 in0.0 mm 0.00 in0.0 mm
02:43 PM 66.1°F18.9°C 31.1°F-0.5°C 27% 10.0 mph NNW16.1 kmh NNW 14.0 mph22.5 kmh 29.61 in1002.7 mb 0.00 in0.0 mm 0.00 in0.0 mm 0.00 in0.0 mm
02:38 PM 66.1°F18.9°C 31.1°F-0.5°C 27% 7.0 mph NE11.3 kmh NE 13.0 mph20.9 kmh 29.61 in1002.7 mb 0.00 in0.0 mm 0.00 in0.0 mm 0.00 in0.0 mm
02:33 PM 66.4°F19.1°C 30.5°F-0.8°C 26% 4.0 mph N6.4 kmh N 16.0 mph25.7 kmh 29.61 in1002.7 mb 0.00 in0.0 mm 0.00 in0.0 mm 0.00 in0.0 mm
02:28 PM 66.3°F19.1°C 31.3°F-0.4°C 27% 2.0 mph N3.2 kmh N 16.0 mph25.7 kmh 29.61 in1002.7 mb 0.00 in0.0 mm 0.00 in0.0 mm 0.00 in0.0 mm
02:23 PM 66.9°F19.4°C 30.9°F-0.6°C 26% 3.0 mph NNE4.8 kmh NNE 16.0 mph25.7 kmh 29.61 in1002.7 mb 0.00 in0.0 mm 0.00 in0.0 mm 0.00 in0.0 mm
02:18 PM 67.1°F19.5°C 31.1°F-0.5°C 26% 11.0 mph ENE17.7 kmh ENE 16.0 mph25.7 kmh 29.61 in1002.7 mb 0.00 in0.0 mm 0.00 in0.0 mm 0.00 in0.0 mm
02:13 PM 66.4°F19.1°C 31.4°F-0.3°C 27% 9.0 mph NNW14.5 kmh NNW 13.0 mph20.9 kmh 29.61 in1002.7 mb 0.00 in0.0 mm 0.00 in0.0 mm 0.00 in0.0 mm
02:08 PM 65.8°F18.8°C 31.8°F-0.1°C 28% 5.0 mph NW8.0 kmh NW 22.0 mph35.4 kmh 29.61 in1002.7 mb 0.00 in0.0 mm 0.00 in0.0 mm 0.00 in0.0 mm
02:03 PM 65.8°F18.8°C 30.9°F-0.6°C 27% 10.0 mph NE16.1 kmh NE 22.0 mph35.4 kmh 29.61 in1002.7 mb 0.00 in0.0 mm 0.00 in0.0 mm 0.00 in0.0 mm
01:58 PM 65.6°F18.7°C 30.7°F-0.7°C 27% 6.0 mph NNE9.7 kmh NNE 22.0 mph35.4 kmh 29.62 in1003.0 mb 0.00 in0.0 mm 0.00 in0.0 mm 0.00 in0.0 mm
01:53 PM 66.1°F18.9°C 30.2°F-1.0°C 26% 6.0 mph ENE9.7 kmh ENE 22.0 mph35.4 kmh 29.62 in1003.0 mb 0.00 in0.0 mm 0.00 in0.0 mm 0.00 in0.0 mm
01:48 PM 65.3°F18.5°C 31.4°F-0.3°C 28% 13.0 mph NE20.9 kmh NE 15.0 mph24.1 kmh 29.62 in1003.0 mb 0.00 in0.0 mm 0.00 in0.0 mm 0.00 in0.0 mm
01:43 PM 64.8°F18.2°C 30.9°F-0.6°C 28% 5.0 mph N8.0 kmh N 14.0 mph22.5 kmh 29.63 in1003.4 mb 0.00 in0.0 mm 0.00 in0.0 mm 0.00 in0.0 mm
01:38 PM 64.7°F18.2°C 29.9°F-1.2°C 27% 6.0 mph E9.7 kmh E 14.0 mph22.5 kmh 29.63 in1003.4 mb 0.00 in0.0 mm 0.00 in0.0 mm 0.00 in0.0 mm
01:33 PM 64.8°F18.2°C 30.0°F-1.1°C 27% 13.0 mph ENE20.9 kmh ENE 16.0 mph25.7 kmh 29.63 in1003.4 mb 0.00 in0.0 mm 0.00 in0.0 mm 0.00 in0.0 mm
01:28 PM 64.7°F18.2°C 30.8°F-0.7°C 28% 1.0 mph NE1.6 kmh NE 16.0 mph25.7 kmh 29.62 in1003.0 mb 0.00 in0.0 mm 0.00 in0.0 mm 0.00 in0.0 mm
01:23 PM 64.3°F17.9°C 30.5°F-0.8°C 28% 6.0 mph N9.7 kmh N 16.0 mph25.7 kmh 29.62 in1003.0 mb 0.00 in0.0 mm 0.00 in0.0 mm 0.00 in0.0 mm
01:18 PM 64.5°F18.1°C 30.7°F-0.7°C 28% 1.0 mph NNE1.6 kmh NNE 16.0 mph25.7 kmh 29.62 in1003.0 mb 0.00 in0.0 mm 0.00 in0.0 mm 0.00 in0.0 mm
01:13 PM 64.5°F18.1°C 31.5°F-0.3°C 29% 5.0 mph ENE8.0 kmh ENE 13.0 mph20.9 kmh 29.63 in1003.4 mb 0.00 in0.0 mm 0.00 in0.0 mm 0.00 in0.0 mm
01:08 PM 64.5°F18.1°C 30.7°F-0.7°C 28% 5.0 mph ESE8.0 kmh ESE 13.0 mph20.9 kmh 29.63 in1003.4 mb 0.00 in0.0 mm 0.00 in0.0 mm 0.00 in0.0 mm
01:03 PM 64.8°F18.2°C 30.9°F-0.6°C 28% 12.0 mph NNE19.3 kmh NNE 13.0 mph20.9 kmh 29.63 in1003.4 mb 0.00 in0.0 mm 0.00 in0.0 mm 0.00 in0.0 mm
12:58 PM 64.2°F17.9°C 31.3°F-0.4°C 29% 5.0 mph N8.0 kmh N 13.0 mph20.9 kmh 29.63 in1003.4 mb 0.00 in0.0 mm 0.00 in0.0 mm 0.00 in0.0 mm
12:53 PM 63.9°F17.7°C 31.0°F-0.6°C 29% 3.0 mph NE4.8 kmh NE 17.0 mph27.4 kmh 29.63 in1003.4 mb 0.00 in0.0 mm 0.00 in0.0 mm 0.00 in0.0 mm
12:48 PM 63.4°F17.4°C 32.2°F0.1°C 31% 5.0 mph NNW8.0 kmh NNW 17.0 mph27.4 kmh 29.63 in1003.4 mb 0.00 in0.0 mm 0.00 in0.0 mm 0.00 in0.0 mm
12:43 PM 62.7°F17.1°C 32.4°F0.2°C 32% 8.0 mph ENE12.9 kmh ENE 19.0 mph30.6 kmh 29.64 in1003.7 mb 0.00 in0.0 mm 0.00 in0.0 mm 0.00 in0.0 mm
12:38 PM 62.0°F16.7°C 33.3°F0.7°C 34% 2.0 mph E3.2 kmh E 19.0 mph30.6 kmh 29.64 in1003.7 mb 0.00 in0.0 mm 0.00 in0.0 mm 0.00 in0.0 mm
12:33 PM 61.8°F16.6°C 33.1°F0.6°C 34% 2.0 mph NNE3.2 kmh NNE 19.0 mph30.6 kmh 29.64 in1003.7 mb 0.00 in0.0 mm 0.00 in0.0 mm 0.00 in0.0 mm
12:28 PM 62.3°F16.8°C 32.8°F0.4°C 33% 10.0 mph NE16.1 kmh NE 19.0 mph30.6 kmh 29.64 in1003.7 mb 0.00 in0.0 mm 0.00 in0.0 mm 0.00 in0.0 mm
12:23 PM 62.3°F16.8°C 33.6°F0.9°C 34% 5.0 mph NNE8.0 kmh NNE 14.0 mph22.5 kmh 29.64 in1003.7 mb 0.00 in0.0 mm 0.00 in0.0 mm 0.00 in0.0 mm
12:18 PM 62.1°F16.7°C 34.1°F1.2°C 35% 4.0 mph NE6.4 kmh NE 14.0 mph22.5 kmh 29.64 in1003.7 mb 0.00 in0.0 mm 0.00 in0.0 mm 0.00 in0.0 mm
12:13 PM 63.1°F17.3°C 37.1°F2.8°C 38% 9.0 mph N14.5 kmh N 14.0 mph22.5 kmh 29.63 in1003.4 mb 0.00 in0.0 mm 0.00 in0.0 mm 0.00 in0.0 mm
12:08 PM 63.1°F17.3°C 32.8°F0.4°C 32% 4.0 mph E6.4 kmh E 13.0 mph20.9 kmh 29.63 in1003.4 mb 0.00 in0.0 mm 0.00 in0.0 mm 0.00 in0.0 mm
12:03 PM 63.9°F17.7°C 31.9°F-0.1°C 30% 13.0 mph ENE20.9 kmh ENE 13.0 mph20.9 kmh 29.63 in1003.4 mb 0.00 in0.0 mm 0.00 in0.0 mm 0.00 in0.0 mm
11:58 AM 63.9°F17.7°C 31.9°F-0.1°C 30% 9.0 mph NNE14.5 kmh NNE 17.0 mph27.4 kmh 29.63 in1003.4 mb 0.00 in0.0 mm 0.00 in0.0 mm 0.00 in0.0 mm
11:53 AM 62.7°F17.1°C 32.4°F0.2°C 32% 4.0 mph W6.4 kmh W 17.0 mph27.4 kmh 29.63 in1003.4 mb 0.00 in0.0 mm 0.00 in0.0 mm 0.00 in0.0 mm
11:48 AM 62.6°F17.0°C 32.3°F0.2°C 32% 11.0 mph NE17.7 kmh NE 20.0 mph32.2 kmh 29.63 in1003.4 mb 0.00 in0.0 mm 0.00 in0.0 mm 0.00 in0.0 mm
11:43 AM 62.4°F16.9°C 31.4°F-0.3°C 31% 12.0 mph NE19.3 kmh NE 20.0 mph32.2 kmh 29.64 in1003.7 mb 0.00 in0.0 mm 0.00 in0.0 mm 0.00 in0.0 mm
11:38 AM 62.1°F16.7°C 32.7°F0.4°C 33% 4.0 mph NE6.4 kmh NE 20.0 mph32.2 kmh 29.64 in1003.7 mb 0.00 in0.0 mm 0.00 in0.0 mm 0.00 in0.0 mm
11:33 AM 62.3°F16.8°C 32.1°F0.1°C 32% 5.0 mph NE8.0 kmh NE 20.0 mph32.2 kmh 29.64 in1003.7 mb 0.00 in0.0 mm 0.00 in0.0 mm 0.00 in0.0 mm
11:28 AM 62.1°F16.7°C 30.3°F-0.9°C 30% 15.0 mph ENE24.1 kmh ENE 18.0 mph29.0 kmh 29.64 in1003.7 mb 0.00 in0.0 mm 0.00 in0.0 mm 0.00 in0.0 mm
11:23 AM 61.8°F16.6°C 31.6°F-0.2°C 32% 18.0 mph ENE29.0 kmh ENE 18.0 mph29.0 kmh 29.64 in1003.7 mb 0.00 in0.0 mm 0.00 in0.0 mm 0.00 in0.0 mm
11:18 AM 61.8°F16.6°C 32.4°F0.2°C 33% 6.0 mph NE9.7 kmh NE 17.0 mph27.4 kmh 29.64 in1003.7 mb 0.00 in0.0 mm 0.00 in0.0 mm 0.00 in0.0 mm
11:13 AM 61.2°F16.2°C 31.9°F-0.1°C 33% 6.0 mph NE9.7 kmh NE 17.0 mph27.4 kmh 29.65 in1004.1 mb 0.00 in0.0 mm 0.00 in0.0 mm 0.00 in0.0 mm
11:08 AM 60.5°F15.8°C 33.4°F0.8°C 36% 9.0 mph E14.5 kmh E 17.0 mph27.4 kmh 29.65 in1004.1 mb 0.00 in0.0 mm 0.00 in0.0 mm 0.00 in0.0 mm
11:03 AM 59.5°F15.3°C 33.2°F0.7°C 37% 3.0 mph E4.8 kmh E 18.0 mph29.0 kmh 29.65 in1004.1 mb 0.00 in0.0 mm 0.00 in0.0 mm 0.00 in0.0 mm
10:58 AM 58.9°F14.9°C 34.6°F1.4°C 40% 5.0 mph ENE8.0 kmh ENE 18.0 mph29.0 kmh 29.65 in1004.1 mb 0.00 in0.0 mm 0.00 in0.0 mm 0.00 in0.0 mm
10:53 AM 58.9°F14.9°C 35.2°F1.8°C 41% 7.0 mph E11.3 kmh E 18.0 mph29.0 kmh 29.65 in1004.1 mb 0.00 in0.0 mm 0.00 in0.0 mm 0.00 in0.0 mm
10:48 AM 58.7°F14.8°C 33.8°F1.0°C 39% 6.0 mph NE9.7 kmh NE 18.0 mph29.0 kmh 29.65 in1004.1 mb 0.00 in0.0 mm 0.00 in0.0 mm 0.00 in0.0 mm
10:43 AM 59.3°F15.2°C 33.7°F0.9°C 38% 5.0 mph ENE8.0 kmh ENE 17.0 mph27.4 kmh 29.64 in1003.7 mb 0.00 in0.0 mm 0.00 in0.0 mm 0.00 in0.0 mm
10:38 AM 59.5°F15.3°C 35.8°F2.1°C 41% 9.0 mph ENE14.5 kmh ENE 17.0 mph27.4 kmh 29.64 in1003.7 mb 0.00 in0.0 mm 0.00 in0.0 mm 0.00 in0.0 mm
10:33 AM 59.5°F15.3°C 35.8°F2.1°C 41% 7.0 mph E11.3 kmh E 20.0 mph32.2 kmh 29.64 in1003.7 mb 0.00 in0.0 mm 0.00 in0.0 mm 0.00 in0.0 mm
10:28 AM 59.9°F15.5°C 36.1°F2.3°C 41% 5.0 mph NE8.0 kmh NE 20.0 mph32.2 kmh 29.64 in1003.7 mb 0.00 in0.0 mm 0.00 in0.0 mm 0.00 in0.0 mm
10:23 AM 59.0°F15.0°C 35.9°F2.2°C 42% 9.0 mph ENE14.5 kmh ENE 20.0 mph32.2 kmh 29.64 in1003.7 mb 0.00 in0.0 mm 0.00 in0.0 mm 0.00 in0.0 mm
10:18 AM 58.9°F14.9°C 35.2°F1.8°C 41% 11.0 mph NE17.7 kmh NE 20.0 mph32.2 kmh 29.64 in1003.7 mb 0.00 in0.0 mm 0.00 in0.0 mm 0.00 in0.0 mm
10:13 AM 59.2°F15.1°C 35.5°F1.9°C 41% 7.0 mph NE11.3 kmh NE 19.0 mph30.6 kmh 29.63 in1003.4 mb 0.00 in0.0 mm 0.00 in0.0 mm 0.00 in0.0 mm
10:08 AM 59.2°F15.1°C 35.5°F1.9°C 41% 15.0 mph ENE24.1 kmh ENE 19.0 mph30.6 kmh 29.63 in1003.4 mb 0.00 in0.0 mm 0.00 in0.0 mm 0.00 in0.0 mm
10:03 AM 58.9°F14.9°C 35.9°F2.2°C 42% 13.0 mph NE20.9 kmh NE 18.0 mph29.0 kmh 29.63 in1003.4 mb 0.00 in0.0 mm 0.00 in0.0 mm 0.00 in0.0 mm
09:58 AM 58.6°F14.8°C 35.6°F2.0°C 42% 12.0 mph ENE19.3 kmh ENE 18.0 mph29.0 kmh 29.65 in1004.1 mb 0.00 in0.0 mm 0.00 in0.0 mm 0.00 in0.0 mm
09:53 AM 58.6°F14.8°C 36.2°F2.3°C 43% 9.0 mph E14.5 kmh E 18.0 mph29.0 kmh 29.65 in1004.1 mb 0.00 in0.0 mm 0.00 in0.0 mm 0.00 in0.0 mm
09:48 AM 58.1°F14.5°C 35.7°F2.1°C 43% 7.0 mph NE11.3 kmh NE 18.0 mph29.0 kmh 29.65 in1004.1 mb 0.00 in0.0 mm 0.00 in0.0 mm 0.00 in0.0 mm
09:43 AM 57.8°F14.3°C 34.9°F1.6°C 42% 9.0 mph ENE14.5 kmh ENE 18.0 mph29.0 kmh 29.64 in1003.7 mb 0.00 in0.0 mm 0.00 in0.0 mm 0.00 in0.0 mm
09:38 AM 57.8°F14.3°C 35.5°F1.9°C 43% 5.0 mph NE8.0 kmh NE 17.0 mph27.4 kmh 29.64 in1003.7 mb 0.00 in0.0 mm 0.00 in0.0 mm 0.00 in0.0 mm
09:33 AM 57.8°F14.3°C 35.5°F1.9°C 43% 15.0 mph NE24.1 kmh NE 17.0 mph27.4 kmh 29.64 in1003.7 mb 0.00 in0.0 mm 0.00 in0.0 mm 0.00 in0.0 mm
09:28 AM 57.0°F13.9°C 37.5°F3.1°C 48% 5.0 mph ENE8.0 kmh ENE 12.0 mph19.3 kmh 29.65 in1004.1 mb 0.00 in0.0 mm 0.00 in0.0 mm 0.00 in0.0 mm
09:23 AM 56.6°F13.7°C 39.2°F4.0°C 52% Calm Calm 4.0 mph6.4 kmh 29.65 in1004.1 mb 0.00 in0.0 mm 0.00 in0.0 mm 0.00 in0.0 mm
09:18 AM 55.9°F13.3°C 40.4°F4.7°C 56% 1.0 mph ESE1.6 kmh ESE 3.0 mph4.8 kmh 29.65 in1004.1 mb 0.00 in0.0 mm 0.00 in0.0 mm 0.00 in0.0 mm
09:13 AM 55.0°F12.8°C 40.0°F4.4°C 57% Calm Calm -- 29.65 in1004.1 mb 0.00 in0.0 mm 0.00 in0.0 mm 0.00 in0.0 mm
09:08 AM 54.2°F12.3°C 40.2°F4.6°C 59% Calm Calm 5.0 mph8.0 kmh 29.65 in1004.1 mb 0.00 in0.0 mm 0.00 in0.0 mm 0.00 in0.0 mm
09:03 AM 54.1°F12.3°C 41.4°F5.2°C 62% 2.0 mph SE3.2 kmh SE 4.0 mph6.4 kmh 29.65 in1004.1 mb 0.00 in0.0 mm 0.00 in0.0 mm 0.00 in0.0 mm
08:58 AM 52.9°F11.6°C 41.5°F5.3°C 65% Calm Calm 4.0 mph6.4 kmh 29.66 in1004.4 mb 0.00 in0.0 mm 0.00 in0.0 mm 0.00 in0.0 mm
08:53 AM 51.7°F10.9°C 41.5°F5.3°C 68% 2.0 mph SE3.2 kmh SE 4.0 mph6.4 kmh 29.66 in1004.4 mb 0.00 in0.0 mm 0.00 in0.0 mm 0.00 in0.0 mm
08:48 AM 51.1°F10.6°C 41.7°F5.4°C 70% 1.0 mph S1.6 kmh S 4.0 mph6.4 kmh 29.66 in1004.4 mb 0.00 in0.0 mm 0.00 in0.0 mm 0.00 in0.0 mm
08:43 AM 50.5°F10.3°C 42.2°F5.7°C 73% Calm Calm 4.0 mph6.4 kmh 29.66 in1004.4 mb 0.00 in0.0 mm 0.00 in0.0 mm 0.00 in0.0 mm
08:38 AM 49.9°F9.9°C 41.9°F5.5°C 74% Calm Calm 4.0 mph6.4 kmh 29.66 in1004.4 mb 0.00 in0.0 mm 0.00 in0.0 mm 0.00 in0.0 mm
08:33 AM 49.4°F9.7°C 42.5°F5.8°C 77% 2.0 mph E3.2 kmh E 4.0 mph6.4 kmh 29.66 in1004.4 mb 0.00 in0.0 mm 0.00 in0.0 mm 0.00 in0.0 mm
08:28 AM 48.6°F9.2°C 42.1°F5.6°C 78% 1.0 mph ENE1.6 kmh ENE 4.0 mph6.4 kmh 29.67 in1004.7 mb 0.00 in0.0 mm 0.00 in0.0 mm 0.00 in0.0 mm
08:23 AM 48.5°F9.2°C 42.6°F5.9°C 80% 3.0 mph E4.8 kmh E 3.0 mph4.8 kmh 29.67 in1004.7 mb 0.00 in0.0 mm 0.00 in0.0 mm 0.00 in0.0 mm
08:18 AM 48.5°F9.2°C 42.6°F5.9°C 80% Calm Calm 4.0 mph6.4 kmh 29.67 in1004.7 mb 0.00 in0.0 mm 0.00 in0.0 mm 0.00 in0.0 mm
08:13 AM 48.6°F9.2°C 43.0°F6.1°C 81% 2.0 mph SE3.2 kmh SE 4.0 mph6.4 kmh 29.66 in1004.4 mb 0.00 in0.0 mm 0.00 in0.0 mm 0.00 in0.0 mm
08:08 AM 48.5°F9.2°C 43.6°F6.4°C 83% 3.0 mph ENE4.8 kmh ENE 4.0 mph6.4 kmh 29.66 in1004.4 mb 0.00 in0.0 mm 0.00 in0.0 mm 0.00 in0.0 mm
08:03 AM 48.3°F9.1°C 43.4°F6.3°C 83% Calm Calm 3.0 mph4.8 kmh 29.66 in1004.4 mb 0.00 in0.0 mm 0.00 in0.0 mm 0.00 in0.0 mm
07:58 AM 48.0°F8.9°C 43.1°F6.2°C 83% Calm Calm 2.0 mph3.2 kmh 29.67 in1004.7 mb 0.00 in0.0 mm 0.00 in0.0 mm 0.00 in0.0 mm
07:53 AM 47.7°F8.7°C 43.1°F6.2°C 84% Calm Calm -- 29.67 in1004.7 mb 0.00 in0.0 mm 0.00 in0.0 mm 0.00 in0.0 mm
07:48 AM 47.3°F8.5°C 42.4°F5.8°C 83% Calm Calm -- 29.67 in1004.7 mb 0.00 in0.0 mm 0.00 in0.0 mm 0.00 in0.0 mm
07:43 AM 47.1°F8.4°C 42.5°F5.8°C 84% Calm Calm 1.0 mph1.6 kmh 29.65 in1004.1 mb 0.00 in0.0 mm 0.00 in0.0 mm 0.00 in0.0 mm
07:38 AM 46.8°F8.2°C 42.2°F5.7°C 84% Calm Calm 2.0 mph3.2 kmh 29.65 in1004.1 mb 0.00 in0.0 mm 0.00 in0.0 mm 0.00 in0.0 mm
07:33 AM 46.7°F8.2°C 42.1°F5.6°C 84% Calm Calm -- 29.65 in1004.1 mb 0.00 in0.0 mm 0.00 in0.0 mm 0.00 in0.0 mm
07:28 AM 46.5°F8.1°C 41.9°F5.5°C 84% 2.0 mph NW3.2 kmh NW 3.0 mph4.8 kmh 29.65 in1004.1 mb 0.00 in0.0 mm 0.00 in0.0 mm 0.00 in0.0 mm
07:23 AM 46.5°F8.1°C 41.9°F5.5°C 84% Calm Calm 3.0 mph4.8 kmh 29.65 in1004.1 mb 0.00 in0.0 mm 0.00 in0.0 mm 0.00 in0.0 mm
07:18 AM 46.4°F8.0°C 41.8°F5.4°C 84% 2.0 mph W3.2 kmh W 3.0 mph4.8 kmh 29.65 in1004.1 mb 0.00 in0.0 mm 0.00 in0.0 mm 0.00 in0.0 mm
07:13 AM 46.2°F7.9°C 41.6°F5.3°C 84% Calm Calm -- 29.64 in1003.7 mb 0.00 in0.0 mm 0.00 in0.0 mm 0.00 in0.0 mm
07:08 AM 46.2°F7.9°C 41.6°F5.3°C 84% Calm Calm 4.0 mph6.4 kmh 29.64 in1003.7 mb 0.00 in0.0 mm 0.00 in0.0 mm 0.00 in0.0 mm
07:03 AM 46.2°F7.9°C 41.6°F5.3°C 84% 1.0 mph W1.6 kmh W 4.0 mph6.4 kmh 29.64 in1003.7 mb 0.00 in0.0 mm 0.00 in0.0 mm 0.00 in0.0 mm
06:58 AM 46.1°F7.8°C 41.5°F5.3°C 84% 1.0 mph W1.6 kmh W 6.0 mph9.7 kmh 29.64 in1003.7 mb 0.00 in0.0 mm 0.00 in0.0 mm 0.00 in0.0 mm
06:53 AM 46.1°F7.8°C 41.5°F5.3°C 84% 2.0 mph W3.2 kmh W 6.0 mph9.7 kmh 29.64 in1003.7 mb 0.00 in0.0 mm 0.00 in0.0 mm 0.00 in0.0 mm
06:48 AM 46.1°F7.8°C 41.2°F5.1°C 83% 2.0 mph SW3.2 kmh SW 6.0 mph9.7 kmh 29.64 in1003.7 mb 0.00 in0.0 mm 0.00 in0.0 mm 0.00 in0.0 mm
06:43 AM 46.1°F7.8°C 41.2°F5.1°C 83% Calm Calm 6.0 mph9.7 kmh 29.64 in1003.7 mb 0.00 in0.0 mm 0.00 in0.0 mm 0.00 in0.0 mm
06:38 AM 45.8°F7.7°C 40.9°F4.9°C 83% Calm Calm 5.0 mph8.0 kmh 29.64 in1003.7 mb 0.00 in0.0 mm 0.00 in0.0 mm 0.00 in0.0 mm
06:33 AM 45.8°F7.7°C 40.9°F4.9°C 83% 3.0 mph W4.8 kmh W 5.0 mph8.0 kmh 29.64 in1003.7 mb 0.00 in0.0 mm 0.00 in0.0 mm 0.00 in0.0 mm
06:28 AM 45.8°F7.7°C 40.9°F4.9°C 83% 2.0 mph NW3.2 kmh NW 5.0 mph8.0 kmh 29.63 in1003.4 mb 0.00 in0.0 mm 0.00 in0.0 mm 0.00 in0.0 mm
06:23 AM 45.8°F7.7°C 40.9°F4.9°C 83% 2.0 mph WSW3.2 kmh WSW 4.0 mph6.4 kmh 29.63 in1003.4 mb 0.00 in0.0 mm 0.00 in0.0 mm 0.00 in0.0 mm
06:18 AM 46.0°F7.8°C 41.1°F5.1°C 83% 3.0 mph WNW4.8 kmh WNW 3.0 mph4.8 kmh 29.63 in1003.4 mb 0.00 in0.0 mm 0.00 in0.0 mm 0.00 in0.0 mm
06:13 AM 46.1°F7.8°C 41.2°F5.1°C 83% Calm Calm 2.0 mph3.2 kmh 29.61 in1002.7 mb 0.00 in0.0 mm 0.00 in0.0 mm 0.00 in0.0 mm
06:08 AM 46.4°F8.0°C 41.5°F5.3°C 83% 1.0 mph SW1.6 kmh SW 6.0 mph9.7 kmh 29.61 in1002.7 mb 0.00 in0.0 mm 0.00 in0.0 mm 0.00 in0.0 mm
06:03 AM 46.5°F8.1°C 41.6°F5.3°C 83% 3.0 mph WNW4.8 kmh WNW 6.0 mph9.7 kmh 29.61 in1002.7 mb 0.00 in0.0 mm 0.00 in0.0 mm 0.00 in0.0 mm
05:58 AM 46.5°F8.1°C 41.6°F5.3°C 83% 3.0 mph WNW4.8 kmh WNW 6.0 mph9.7 kmh 29.61 in1002.7 mb 0.00 in0.0 mm 0.00 in0.0 mm 0.00 in0.0 mm
05:53 AM 46.5°F8.1°C 41.6°F5.3°C 83% 3.0 mph N4.8 kmh N 5.0 mph8.0 kmh 29.61 in1002.7 mb 0.00 in0.0 mm 0.00 in0.0 mm 0.00 in0.0 mm
05:48 AM 46.8°F8.2°C 41.9°F5.5°C 83% 2.0 mph N3.2 kmh N 6.0 mph9.7 kmh 29.61 in1002.7 mb 0.00 in0.0 mm 0.00 in0.0 mm 0.00 in0.0 mm
05:43 AM 47.0°F8.3°C 42.1°F5.6°C 83% 3.0 mph NE4.8 kmh NE 6.0 mph9.7 kmh 29.61 in1002.7 mb 0.00 in0.0 mm 0.00 in0.0 mm 0.00 in0.0 mm
05:38 AM 47.3°F8.5°C 42.4°F5.8°C 83% 1.0 mph NE1.6 kmh NE 6.0 mph9.7 kmh 29.61 in1002.7 mb 0.00 in0.0 mm 0.00 in0.0 mm 0.00 in0.0 mm
05:33 AM 47.3°F8.5°C 42.4°F5.8°C 83% 3.0 mph NE4.8 kmh NE 6.0 mph9.7 kmh 29.61 in1002.7 mb 0.00 in0.0 mm 0.00 in0.0 mm 0.00 in0.0 mm
05:28 AM 47.1°F8.4°C 42.2°F5.7°C 83% 4.0 mph NNE6.4 kmh NNE 4.0 mph6.4 kmh 29.61 in1002.7 mb 0.00 in0.0 mm 0.00 in0.0 mm 0.00 in0.0 mm
05:23 AM 47.1°F8.4°C 42.2°F5.7°C 83% Calm Calm 4.0 mph6.4 kmh 29.61 in1002.7 mb 0.00 in0.0 mm 0.00 in0.0 mm 0.00 in0.0 mm
05:18 AM 47.4°F8.6°C 42.5°F5.8°C 83% Calm Calm 5.0 mph8.0 kmh 29.61 in1002.7 mb 0.00 in0.0 mm 0.00 in0.0 mm 0.00 in0.0 mm
05:13 AM 47.4°F8.6°C 42.5°F5.8°C 83% 2.0 mph W3.2 kmh W 5.0 mph8.0 kmh 29.59 in1002.0 mb 0.00 in0.0 mm 0.00 in0.0 mm 0.00 in0.0 mm
05:08 AM 47.6°F8.7°C 42.7°F5.9°C 83% Calm Calm 5.0 mph8.0 kmh 29.59 in1002.0 mb 0.00 in0.0 mm 0.00 in0.0 mm 0.00 in0.0 mm
05:03 AM 47.7°F8.7°C 42.8°F6.0°C 83% Calm Calm 5.0 mph8.0 kmh 29.59 in1002.0 mb 0.00 in0.0 mm 0.00 in0.0 mm 0.00 in0.0 mm
04:58 AM 47.9°F8.8°C 43.0°F6.1°C 83% Calm Calm 5.0 mph8.0 kmh 29.60 in1002.4 mb 0.00 in0.0 mm 0.00 in0.0 mm 0.00 in0.0 mm
04:53 AM 47.9°F8.8°C 43.0°F6.1°C 83% 2.0 mph SW3.2 kmh SW 5.0 mph8.0 kmh 29.60 in1002.4 mb 0.00 in0.0 mm 0.00 in0.0 mm 0.00 in0.0 mm
04:48 AM 47.9°F8.8°C 43.0°F6.1°C 83% Calm Calm 5.0 mph8.0 kmh 29.60 in1002.4 mb 0.00 in0.0 mm 0.00 in0.0 mm 0.00 in0.0 mm
04:43 AM 47.9°F8.8°C 43.0°F6.1°C 83% 4.0 mph W6.4 kmh W 5.0 mph8.0 kmh 29.60 in1002.4 mb 0.00 in0.0 mm 0.00 in0.0 mm 0.00 in0.0 mm
04:38 AM 47.9°F8.8°C 43.0°F6.1°C 83% Calm Calm 5.0 mph8.0 kmh 29.60 in1002.4 mb 0.00 in0.0 mm 0.00 in0.0 mm 0.00 in0.0 mm
04:33 AM 47.9°F8.8°C 43.0°F6.1°C 83% 1.0 mph SW1.6 kmh SW 5.0 mph8.0 kmh 29.60 in1002.4 mb 0.00 in0.0 mm 0.00 in0.0 mm 0.00 in0.0 mm
04:28 AM 47.9°F8.8°C 42.7°F5.9°C 82% 2.0 mph SW3.2 kmh SW 5.0 mph8.0 kmh 29.61 in1002.7 mb 0.00 in0.0 mm 0.00 in0.0 mm 0.00 in0.0 mm
04:23 AM 47.7°F8.7°C 42.5°F5.8°C 82% 1.0 mph WSW1.6 kmh WSW 5.0 mph8.0 kmh 29.61 in1002.7 mb 0.00 in0.0 mm 0.00 in0.0 mm 0.00 in0.0 mm
04:18 AM 47.9°F8.8°C 42.7°F5.9°C 82% Calm Calm 5.0 mph8.0 kmh 29.61 in1002.7 mb 0.00 in0.0 mm 0.00 in0.0 mm 0.00 in0.0 mm
04:13 AM 48.0°F8.9°C 42.8°F6.0°C 82% 2.0 mph SW3.2 kmh SW 5.0 mph8.0 kmh 29.61 in1002.7 mb 0.00 in0.0 mm 0.00 in0.0 mm 0.00 in0.0 mm
04:08 AM 48.3°F9.1°C 43.1°F6.2°C 82% Calm Calm 4.0 mph6.4 kmh 29.61 in1002.7 mb 0.00 in0.0 mm 0.00 in0.0 mm 0.00 in0.0 mm
04:03 AM 48.5°F9.2°C 43.3°F6.3°C 82% 2.0 mph W3.2 kmh W 4.0 mph6.4 kmh 29.61 in1002.7 mb 0.00 in0.0 mm 0.00 in0.0 mm 0.00 in0.0 mm
03:58 AM 48.3°F9.1°C 43.1°F6.2°C 82% 2.0 mph W3.2 kmh W 4.0 mph6.4 kmh 29.61 in1002.7 mb 0.00 in0.0 mm 0.00 in0.0 mm 0.00 in0.0 mm
03:53 AM 48.3°F9.1°C 43.1°F6.2°C 82% Calm Calm 3.0 mph4.8 kmh 29.61 in1002.7 mb 0.00 in0.0 mm 0.00 in0.0 mm 0.00 in0.0 mm
03:48 AM 48.0°F8.9°C 42.8°F6.0°C 82% 1.0 mph W1.6 kmh W 3.0 mph4.8 kmh 29.61 in1002.7 mb 0.00 in0.0 mm 0.00 in0.0 mm 0.00 in0.0 mm
03:43 AM 47.7°F8.7°C 42.5°F5.8°C 82% 2.0 mph W3.2 kmh W 3.0 mph4.8 kmh 29.61 in1002.7 mb 0.00 in0.0 mm 0.00 in0.0 mm 0.00 in0.0 mm
03:38 AM 47.7°F8.7°C 42.5°F5.8°C 82% Calm Calm 3.0 mph4.8 kmh 29.61 in1002.7 mb 0.00 in0.0 mm 0.00 in0.0 mm 0.00 in0.0 mm
03:33 AM 47.7°F8.7°C 42.5°F5.8°C 82% 1.0 mph W1.6 kmh W 3.0 mph4.8 kmh 29.61 in1002.7 mb 0.00 in0.0 mm 0.00 in0.0 mm 0.00 in0.0 mm
03:28 AM 47.7°F8.7°C 42.5°F5.8°C 82% Calm Calm 2.0 mph3.2 kmh 29.61 in1002.7 mb 0.00 in0.0 mm 0.00 in0.0 mm 0.00 in0.0 mm
03:23 AM 47.7°F8.7°C 42.5°F5.8°C 82% 1.0 mph W1.6 kmh W 2.0 mph3.2 kmh 29.61 in1002.7 mb 0.00 in0.0 mm 0.00 in0.0 mm 0.00 in0.0 mm
03:18 AM 47.4°F8.6°C 42.2°F5.7°C 82% Calm Calm -- 29.61 in1002.7 mb 0.00 in0.0 mm 0.00 in0.0 mm 0.00 in0.0 mm
03:13 AM 47.1°F8.4°C 41.9°F5.5°C 82% Calm Calm 3.0 mph4.8 kmh 29.61 in1002.7 mb 0.00 in0.0 mm 0.00 in0.0 mm 0.00 in0.0 mm
03:08 AM 46.8°F8.2°C 41.6°F5.3°C 82% 2.0 mph W3.2 kmh W 3.0 mph4.8 kmh 29.61 in1002.7 mb 0.00 in0.0 mm 0.00 in0.0 mm 0.00 in0.0 mm
03:03 AM 46.5°F8.1°C 41.3°F5.2°C 82% Calm Calm 1.0 mph1.6 kmh 29.61 in1002.7 mb 0.00 in0.0 mm 0.00 in0.0 mm 0.00 in0.0 mm
02:58 AM 46.2°F7.9°C 40.7°F4.8°C 81% Calm Calm -- 29.61 in1002.7 mb 0.00 in0.0 mm 0.00 in0.0 mm 0.00 in0.0 mm
02:53 AM 46.1°F7.8°C 40.6°F4.8°C 81% Calm Calm -- 29.61 in1002.7 mb 0.00 in0.0 mm 0.00 in0.0 mm 0.00 in0.0 mm
02:48 AM 45.8°F7.7°C 40.3°F4.6°C 81% Calm Calm -- 29.61 in1002.7 mb 0.00 in0.0 mm 0.00 in0.0 mm 0.00 in0.0 mm
02:43 AM 45.8°F7.7°C 40.3°F4.6°C 81% Calm Calm -- 29.62 in1003.0 mb 0.00 in0.0 mm 0.00 in0.0 mm 0.00 in0.0 mm
02:38 AM 45.7°F7.6°C 40.2°F4.6°C 81% Calm Calm 1.0 mph1.6 kmh 29.62 in1003.0 mb 0.00 in0.0 mm 0.00 in0.0 mm 0.00 in0.0 mm
02:33 AM 45.4°F7.4°C 39.9°F4.4°C 81% Calm Calm -- 29.62 in1003.0 mb 0.00 in0.0 mm 0.00 in0.0 mm 0.00 in0.0 mm
02:28 AM 45.4°F7.4°C 39.9°F4.4°C 81% Calm Calm -- 29.63 in1003.4 mb 0.00 in0.0 mm 0.00 in0.0 mm 0.00 in0.0 mm
02:23 AM 45.4°F7.4°C 39.9°F4.4°C 81% Calm Calm -- 29.63 in1003.4 mb 0.00 in0.0 mm 0.00 in0.0 mm 0.00 in0.0 mm
02:18 AM 45.5°F7.5°C 39.7°F4.3°C 80% Calm Calm -- 29.63 in1003.4 mb 0.00 in0.0 mm 0.00 in0.0 mm 0.00 in0.0 mm
02:13 AM 45.8°F7.7°C 40.0°F4.4°C 80% Calm Calm 1.0 mph1.6 kmh 29.63 in1003.4 mb 0.00 in0.0 mm 0.00 in0.0 mm 0.00 in0.0 mm
02:08 AM 46.0°F7.8°C 40.2°F4.6°C 80% Calm Calm -- 29.63 in1003.4 mb 0.00 in0.0 mm 0.00 in0.0 mm 0.00 in0.0 mm
02:03 AM 46.1°F7.8°C 40.3°F4.6°C 80% Calm Calm -- 29.63 in1003.4 mb 0.00 in0.0 mm 0.00 in0.0 mm 0.00 in0.0 mm
01:58 AM 46.2°F7.9°C 40.4°F4.7°C 80% Calm Calm -- 29.63 in1003.4 mb 0.00 in0.0 mm 0.00 in0.0 mm 0.00 in0.0 mm
01:53 AM 46.2°F7.9°C 40.4°F4.7°C 80% Calm Calm 1.0 mph1.6 kmh 29.63 in1003.4 mb 0.00 in0.0 mm 0.00 in0.0 mm 0.00 in0.0 mm
01:48 AM 46.4°F8.0°C 40.6°F4.8°C 80% Calm Calm -- 29.63 in1003.4 mb 0.00 in0.0 mm 0.00 in0.0 mm 0.00 in0.0 mm
01:43 AM 46.5°F8.1°C 40.7°F4.8°C 80% Calm Calm 1.0 mph1.6 kmh 29.64 in1003.7 mb 0.00 in0.0 mm 0.00 in0.0 mm 0.00 in0.0 mm
01:38 AM 46.7°F8.2°C 40.9°F4.9°C 80% Calm Calm -- 29.64 in1003.7 mb 0.00 in0.0 mm 0.00 in0.0 mm 0.00 in0.0 mm
01:33 AM 46.5°F8.1°C 40.7°F4.8°C 80% Calm Calm -- 29.64 in1003.7 mb 0.00 in0.0 mm 0.00 in0.0 mm 0.00 in0.0 mm
01:28 AM 46.2°F7.9°C 40.1°F4.5°C 79% Calm Calm -- 29.65 in1004.1 mb 0.00 in0.0 mm 0.00 in0.0 mm 0.00 in0.0 mm
01:23 AM 46.4°F8.0°C 40.2°F4.6°C 79% Calm Calm -- 29.65 in1004.1 mb 0.00 in0.0 mm 0.00 in0.0 mm 0.00 in0.0 mm
01:18 AM 46.5°F8.1°C 40.3°F4.6°C 79% Calm Calm -- 29.65 in1004.1 mb 0.00 in0.0 mm 0.00 in0.0 mm 0.00 in0.0 mm
01:13 AM 46.7°F8.2°C 40.2°F4.6°C 78% Calm Calm -- 29.66 in1004.4 mb 0.00 in0.0 mm 0.00 in0.0 mm 0.00 in0.0 mm
01:08 AM 47.0°F8.3°C 40.5°F4.7°C 78% Calm Calm -- 29.66 in1004.4 mb 0.00 in0.0 mm 0.00 in0.0 mm 0.00 in0.0 mm
01:03 AM 47.3°F8.5°C 40.8°F4.9°C 78% Calm Calm -- 29.66 in1004.4 mb 0.00 in0.0 mm 0.00 in0.0 mm 0.00 in0.0 mm
12:58 AM 47.6°F8.7°C 41.1°F5.1°C 78% Calm Calm -- 29.66 in1004.4 mb 0.00 in0.0 mm 0.00 in0.0 mm 0.00 in0.0 mm
12:53 AM 47.6°F8.7°C 41.1°F5.1°C 78% Calm Calm -- 29.66 in1004.4 mb 0.00 in0.0 mm 0.00 in0.0 mm 0.00 in0.0 mm
12:48 AM 47.6°F8.7°C 41.1°F5.1°C 78% 1.0 mph W1.6 kmh W 3.0 mph4.8 kmh 29.66 in1004.4 mb 0.00 in0.0 mm 0.00 in0.0 mm 0.00 in0.0 mm
12:43 AM 47.6°F8.7°C 40.8°F4.9°C 77% 1.0 mph W1.6 kmh W 3.0 mph4.8 kmh 29.66 in1004.4 mb 0.00 in0.0 mm 0.00 in0.0 mm 0.00 in0.0 mm
12:38 AM 47.7°F8.7°C 40.8°F4.9°C 77% 1.0 mph W1.6 kmh W 1.0 mph1.6 kmh 29.66 in1004.4 mb 0.00 in0.0 mm 0.00 in0.0 mm 0.00 in0.0 mm
12:33 AM 47.9°F8.8°C 41.0°F5.0°C 77% Calm Calm -- 29.66 in1004.4 mb 0.00 in0.0 mm 0.00 in0.0 mm 0.00 in0.0 mm
12:28 AM 48.0°F8.9°C 41.1°F5.1°C 77% Calm Calm 2.0 mph3.2 kmh 29.67 in1004.7 mb 0.00 in0.0 mm 0.00 in0.0 mm 0.00 in0.0 mm
12:23 AM 48.3°F9.1°C 41.4°F5.2°C 77% Calm Calm -- 29.67 in1004.7 mb 0.00 in0.0 mm 0.00 in0.0 mm 0.00 in0.0 mm
12:18 AM 48.5°F9.2°C 41.6°F5.3°C 77% Calm Calm -- 29.67 in1004.7 mb 0.00 in0.0 mm 0.00 in0.0 mm 0.00 in0.0 mm
12:13 AM 48.8°F9.3°C 41.6°F5.3°C 76% Calm Calm 1.0 mph1.6 kmh 29.68 in1005.1 mb 0.00 in0.0 mm 0.00 in0.0 mm 0.00 in0.0 mm
12:08 AM 48.9°F9.4°C 41.7°F5.4°C 76% Calm Calm 1.0 mph1.6 kmh 29.68 in1005.1 mb 0.00 in0.0 mm 0.00 in0.0 mm 0.00 in0.0 mm
12:03 AM 49.1°F9.5°C 41.9°F5.5°C 76% Calm Calm 2.0 mph3.2 kmh 29.68 in1005.1 mb 0.00 in0.0 mm 0.00 in0.0 mm 0.00 in0.0 mm